Time;durP1;ratioP1;P1;durP2;ratioP2;P2;SDS_P1;SDS_P2;PMS_P1;PMS_P2;Temp;Humidity;BMP_temperature;BMP_pressure;BME280_temperature;BME280_humidity;BME280_pressure;Samples;Min_cycle;Max_cycle;Signal;HPM_P1;HPM_P2
2024/03/15 00:03:01;;;;;;;12.70;6.50;;;15.10;99.90;;;;;;10450209;28;20044;-54
2024/03/15 00:08:03;;;;;;;10.70;6.45;;;14.80;99.90;;;;;;10457719;28;20040;-54
2024/03/15 00:13:06;;;;;;;11.82;6.45;;;15.10;99.90;;;;;;10452833;28;20048;-56
2024/03/15 00:18:08;;;;;;;7.03;5.13;;;14.80;99.90;;;;;;10458864;28;20330;-55
2024/03/15 00:23:11;;;;;;;10.13;6.25;;;14.70;99.90;;;;;;10456435;28;20049;-54
2024/03/15 00:28:13;;;;;;;15.50;6.43;;;14.60;99.90;;;;;;10464715;28;20055;-55
2024/03/15 00:33:15;;;;;;;10.48;6.47;;;14.70;99.90;;;;;;10476095;28;20052;-54
2024/03/15 00:38:18;;;;;;;6.70;4.20;;;14.40;99.90;;;;;;10473723;28;20126;-56
2024/03/15 00:43:21;;;;;;;10.98;6.40;;;14.70;99.90;;;;;;10469901;28;21404;-56
2024/03/15 00:48:23;;;;;;;16.75;7.68;;;14.00;99.90;;;;;;10465894;28;20048;-53
2024/03/15 00:53:25;;;;;;;10.73;6.50;;;13.80;99.90;;;;;;10463867;28;20083;-56
2024/03/15 00:58:27;;;;;;;14.20;6.30;;;13.90;99.90;;;;;;10453163;28;20040;-55
2024/03/15 01:03:29;;;;;;;17.43;6.23;;;13.90;99.90;;;;;;10464887;28;20056;-55
2024/03/15 01:08:32;;;;;;;9.07;5.45;;;13.60;99.90;;;;;;10468176;28;20053;-57
2024/03/15 01:13:34;;;;;;;16.40;6.45;;;13.60;99.90;;;;;;10464911;28;20060;-56
2024/03/15 01:18:36;;;;;;;11.27;7.37;;;13.70;99.90;;;;;;10466144;28;20055;-55
2024/03/15 01:23:39;;;;;;;10.48;6.40;;;13.50;99.90;;;;;;10463196;28;20846;-55
2024/03/15 01:28:41;;;;;;;10.57;6.68;;;13.50;99.90;;;;;;10460944;28;20113;-56
2024/03/15 01:33:44;;;;;;;13.88;6.95;;;13.80;99.90;;;;;;10464691;28;20566;-51
2024/03/15 01:38:46;;;;;;;15.70;7.88;;;14.10;99.90;;;;;;10467196;28;20048;-55
2024/03/15 01:43:48;;;;;;;0.30;0.30;;;13.50;99.90;;;;;;10461898;28;20118;-54
2024/03/15 01:48:52;;;;;;;0.30;0.30;;;13.50;99.90;;;;;;10469935;28;20036;-54
2024/03/15 01:53:54;;;;;;;0.10;0.10;;;13.20;99.90;;;;;;10468713;28;20053;-55
2024/03/15 01:58:57;;;;;;;0.10;0.10;;;13.30;99.90;;;;;;10461720;28;20150;-55
2024/03/15 02:03:59;;;;;;;0.22;0.22;;;13.20;99.90;;;;;;10452752;28;20048;-54
2024/03/15 02:09:02;;;;;;;0.30;0.30;;;13.10;99.90;;;;;;10469883;28;20051;-54
2024/03/15 02:14:05;;;;;;;0.10;0.10;;;12.90;99.90;;;;;;10468609;28;20198;-54
2024/03/15 02:19:09;;;;;;;;;;;12.90;99.90;;;;;;10473200;28;20059;-55
2024/03/15 02:24:12;;;;;;;3.55;1.58;;;13.20;99.90;;;;;;10483748;28;20381;-55
2024/03/15 02:29:15;;;;;;;0.20;0.20;;;13.00;99.90;;;;;;10464813;28;20551;-54
2024/03/15 02:34:18;;;;;;;0.20;0.20;;;12.90;99.90;;;;;;10460375;28;20059;-54
2024/03/15 02:39:24;;;;;;;0.10;0.10;;;13.00;99.90;;;;;;10483139;28;20048;-54
2024/03/15 02:44:26;;;;;;;0.10;0.10;;;13.10;99.90;;;;;;10472105;28;20050;-54
2024/03/15 02:49:28;;;;;;;0.10;0.10;;;13.10;99.90;;;;;;10467649;28;20045;-55
2024/03/15 02:54:30;;;;;;;0.10;0.10;;;13.10;99.90;;;;;;10457453;28;20490;-63
2024/03/15 02:59:32;;;;;;;0.20;0.20;;;12.80;99.90;;;;;;10466471;28;20052;-56
2024/03/15 03:04:35;;;;;;;0.10;0.10;;;12.70;99.90;;;;;;10459044;28;20076;-54
2024/03/15 03:09:37;;;;;;;0.00;0.00;;;12.80;99.90;;;;;;10469701;28;20052;-56
2024/03/15 03:14:39;;;;;;;3.97;0.53;;;12.90;99.90;;;;;;10458575;28;20540;-56
2024/03/15 03:19:41;;;;;;;0.10;0.10;;;12.90;99.90;;;;;;10478308;28;20047;-55
2024/03/15 03:24:44;;;;;;;0.05;0.05;;;13.20;99.90;;;;;;10464503;28;20063;-54
2024/03/15 03:29:46;;;;;;;0.20;0.20;;;13.30;99.90;;;;;;10467901;28;20531;-55
2024/03/15 03:34:48;;;;;;;0.57;0.57;;;13.30;99.90;;;;;;10461718;28;20096;-55
2024/03/15 03:39:50;;;;;;;0.00;0.00;;;13.10;99.90;;;;;;10455555;28;20470;-56
2024/03/15 03:44:53;;;;;;;0.10;0.10;;;13.10;99.90;;;;;;10463008;28;20050;-55
2024/03/15 03:49:55;;;;;;;0.10;0.10;;;12.90;99.90;;;;;;10458920;28;20051;-56
2024/03/15 03:54:58;;;;;;;2.67;1.60;;;12.80;99.90;;;;;;10457007;28;20059;-55
2024/03/15 04:15:30;;;;;;;0.10;0.10;;;12.40;99.90;;;;;;10587486;27;20127;-56
2024/03/15 04:20:33;;;;;;;0.20;0.20;;;12.40;99.90;;;;;;10552300;27;20036;-55
2024/03/15 04:25:35;;;;;;;0.10;0.10;;;12.60;99.90;;;;;;10550646;27;20062;-56
2024/03/15 04:30:37;;;;;;;0.00;0.00;;;12.30;99.90;;;;;;10548055;27;20079;-56
2024/03/15 04:35:40;;;;;;;2.37;1.10;;;12.40;99.90;;;;;;10546864;27;20079;-56
2024/03/15 04:40:42;;;;;;;0.35;0.20;;;12.40;99.90;;;;;;10545834;27;20343;-57
2024/03/15 04:45:44;;;;;;;37.77;14.47;;;12.20;99.90;;;;;;10563932;27;20066;-56
2024/03/15 04:50:46;;;;;;;30.87;12.93;;;12.30;99.90;;;;;;10546233;27;20063;-57
2024/03/15 04:55:48;;;;;;;25.50;9.33;;;12.10;99.90;;;;;;10575172;27;20054;-56
2024/03/15 05:00:51;;;;;;;25.20;9.67;;;12.30;99.90;;;;;;10544939;27;20067;-57
2024/03/15 05:05:53;;;;;;;31.02;8.45;;;12.40;99.90;;;;;;10544010;27;20208;-56
2024/03/15 05:10:55;;;;;;;28.00;9.07;;;12.10;99.90;;;;;;10545426;27;20438;-55
2024/03/15 05:15:57;;;;;;;;;;;12.00;99.90;;;;;;10548702;27;20160;-54
2024/03/15 05:21:00;;;;;;;22.10;5.95;;;12.40;99.90;;;;;;10565070;28;20272;-54
2024/03/15 05:26:05;;;;;;;21.27;7.20;;;12.10;99.90;;;;;;10541823;28;20499;-57
2024/03/15 05:31:07;;;;;;;24.45;7.38;;;12.00;99.90;;;;;;10520495;28;20117;-53
2024/03/15 05:36:09;;;;;;;23.53;6.70;;;11.90;99.90;;;;;;10518605;28;21061;-52
2024/03/15 05:41:11;;;;;;;32.10;8.00;;;12.20;99.90;;;;;;10538755;28;20510;-55
2024/03/15 05:46:13;;;;;;;28.05;6.25;;;12.00;99.90;;;;;;10538060;28;20058;-55
2024/03/15 05:51:15;;;;;;;31.03;6.07;;;12.10;99.90;;;;;;10520984;28;20043;-55
2024/03/15 05:56:18;;;;;;;39.13;7.87;;;12.00;99.90;;;;;;10508013;27;20059;-55
2024/03/15 06:01:20;;;;;;;23.30;4.40;;;11.90;99.90;;;;;;10507255;27;20043;-55
2024/03/15 06:06:24;;;;;;;30.67;5.68;;;11.90;99.90;;;;;;10523202;28;20534;-56
2024/03/15 06:11:26;;;;;;;16.27;3.50;;;11.60;99.90;;;;;;10513096;27;20365;-56
2024/03/15 06:16:28;;;;;;;22.20;3.72;;;11.80;99.90;;;;;;10507603;28;20064;-54
2024/03/15 06:21:31;;;;;;;16.95;3.95;;;11.70;99.90;;;;;;10513114;27;20044;-53
2024/03/15 06:26:33;;;;;;;22.05;4.20;;;11.90;99.90;;;;;;10537817;27;20161;-54
2024/03/15 06:31:37;;;;;;;24.90;4.40;;;11.80;99.90;;;;;;10511666;27;20458;-56
2024/03/15 06:36:44;;;;;;;29.20;4.75;;;11.70;99.90;;;;;;10510930;27;20055;-56
2024/03/15 06:41:51;;;;;;;23.30;3.05;;;11.80;99.90;;;;;;10515297;28;20043;-55
2024/03/15 06:47:16;;;;;;;18.60;2.80;;;11.80;99.90;;;;;;10509438;27;20051;-56
2024/03/15 06:52:35;;;;;;;15.90;3.50;;;12.10;99.90;;;;;;10512726;27;20052;-58
2024/03/15 06:57:37;;;;;;;22.60;3.42;;;12.30;99.90;;;;;;10509978;27;20471;-55
2024/03/15 07:02:41;;;;;;;20.92;3.45;;;12.10;99.90;;;;;;10509107;28;20051;-57
2024/03/15 07:07:43;;;;;;;23.33;3.15;;;12.20;99.90;;;;;;10518069;28;20136;-56
2024/03/15 07:12:46;;;;;;;14.17;2.73;;;12.10;99.90;;;;;;10513214;28;20059;-56
2024/03/15 07:17:48;;;;;;;12.03;3.13;;;12.40;99.90;;;;;;10522867;27;20054;-54
2024/03/15 07:22:50;;;;;;;23.67;3.58;;;12.40;99.90;;;;;;10524013;28;20877;-55
2024/03/15 07:27:53;;;;;;;36.77;5.90;;;12.20;99.90;;;;;;10521398;27;20572;-55
2024/03/15 07:32:55;;;;;;;29.80;4.32;;;12.20;99.90;;;;;;10514832;27;20059;-55
2024/03/15 07:37:58;;;;;;;24.85;3.75;;;12.60;99.90;;;;;;10514489;27;20055;-55
2024/03/15 07:43:00;;;;;;;17.70;2.97;;;12.50;99.90;;;;;;10538688;27;20142;-53
2024/03/15 07:48:03;;;;;;;19.67;3.50;;;12.70;99.90;;;;;;10524976;27;20567;-55
2024/03/15 07:53:05;;;;;;;20.77;3.42;;;12.60;99.90;;;;;;10510909;27;20066;-55
2024/03/15 07:58:08;;;;;;;11.63;2.27;;;12.80;99.90;;;;;;10502291;28;20047;-56
2024/03/15 08:03:11;;;;;;;24.20;3.13;;;12.90;99.90;;;;;;10501271;28;20047;-56
2024/03/15 08:08:13;;;;;;;13.70;2.75;;;12.90;99.90;;;;;;10507200;28;20104;-56
2024/03/15 08:13:15;;;;;;;20.90;2.63;;;13.20;99.90;;;;;;10509365;28;20054;-56
2024/03/15 08:18:17;;;;;;;18.90;3.53;;;12.90;99.90;;;;;;10508586;28;20551;-53
2024/03/15 08:23:19;;;;;;;25.40;4.47;;;12.90;99.90;;;;;;10512289;28;20794;-55
2024/03/15 08:28:21;;;;;;;21.77;2.80;;;12.90;99.90;;;;;;10508504;28;20099;-54
2024/03/15 08:33:23;;;;;;;16.88;3.17;;;13.40;99.90;;;;;;10507564;28;20069;-57
2024/03/15 08:38:26;;;;;;;21.17;4.10;;;13.20;99.90;;;;;;10509952;28;20062;-58
2024/03/15 08:43:28;;;;;;;18.73;3.43;;;13.10;99.90;;;;;;10506537;28;20740;-54
2024/03/15 08:48:30;;;;;;;22.52;4.40;;;13.40;99.90;;;;;;10510337;28;20063;-56
2024/03/15 08:53:33;;;;;;;23.63;3.97;;;13.30;99.90;;;;;;10510099;28;20220;-57
2024/03/15 08:58:35;;;;;;;24.77;4.23;;;13.30;99.90;;;;;;10510612;28;20047;-55
2024/03/15 09:03:37;;;;;;;26.20;3.90;;;13.50;99.90;;;;;;10514864;28;20044;-53
2024/03/15 09:08:41;;;;;;;17.60;4.33;;;13.70;99.90;;;;;;10517252;28;20056;-57
2024/03/15 09:13:44;;;;;;;15.23;3.60;;;13.60;99.90;;;;;;10516397;28;20565;-58
2024/03/15 09:18:46;;;;;;;22.67;3.92;;;13.90;99.90;;;;;;10519895;28;20052;-57
2024/03/15 09:23:49;;;;;;;18.10;4.70;;;13.50;99.90;;;;;;10520098;27;20080;-56
2024/03/15 09:28:51;;;;;;;28.83;5.33;;;13.60;99.90;;;;;;10512385;28;20075;-57
2024/03/15 09:33:57;;;;;;;20.88;5.15;;;13.30;99.90;;;;;;10518210;28;20142;-56
2024/03/15 09:38:59;;;;;;;17.05;4.07;;;13.60;99.90;;;;;;10516022;27;20172;-57
2024/03/15 09:44:01;;;;;;;25.03;4.63;;;13.60;99.90;;;;;;10515619;28;20105;-56
2024/03/15 09:49:03;;;;;;;15.57;3.30;;;13.70;99.90;;;;;;10516872;28;20097;-57
2024/03/15 09:54:06;;;;;;;16.92;4.63;;;13.80;99.90;;;;;;10511632;27;20066;-53
2024/03/15 09:59:08;;;;;;;;;;;13.60;99.90;;;;;;10526376;28;20047;-57
2024/03/15 10:04:10;;;;;;;16.00;4.90;;;13.70;99.90;;;;;;10526922;28;20584;-53
2024/03/15 10:09:13;;;;;;;11.80;3.37;;;13.80;99.90;;;;;;10512535;28;20094;-55
2024/03/15 10:14:15;;;;;;;20.08;5.18;;;13.90;99.90;;;;;;10515019;27;20914;-55
2024/03/15 10:19:17;;;;;;;19.67;5.53;;;13.80;99.90;;;;;;10513045;27;20081;-56
2024/03/15 10:24:19;;;;;;;16.80;5.20;;;13.70;99.90;;;;;;10518249;28;20086;-57
2024/03/15 10:29:22;;;;;;;15.83;4.70;;;13.70;99.90;;;;;;10515035;27;20052;-56
2024/03/15 10:34:25;;;;;;;16.13;4.00;;;13.70;99.90;;;;;;10522381;27;21168;-56
2024/03/15 10:39:27;;;;;;;15.57;3.88;;;13.90;99.90;;;;;;10517310;27;20667;-55
2024/03/15 10:44:29;;;;;;;10.10;3.00;;;13.70;99.90;;;;;;10516308;28;20054;-57
2024/03/15 10:49:31;;;;;;;12.53;2.50;;;13.90;99.90;;;;;;10529557;27;20083;-54
2024/03/15 10:54:33;;;;;;;9.43;2.33;;;14.30;99.90;;;;;;10518136;28;20936;-53
2024/03/15 10:59:36;;;;;;;11.03;3.77;;;14.30;99.90;;;;;;10520125;28;20461;-55
2024/03/15 11:04:39;;;;;;;12.48;2.90;;;14.40;99.90;;;;;;10524916;27;20539;-56
2024/03/15 11:09:41;;;;;;;;;;;14.30;99.90;;;;;;10516769;28;20068;-54
2024/03/15 11:14:44;;;;;;;9.03;2.37;;;14.30;99.90;;;;;;10536184;28;19920;-56
2024/03/15 11:19:46;;;;;;;6.57;1.47;;;14.00;99.90;;;;;;10522170;28;20048;-56
2024/03/15 11:24:49;;;;;;;8.47;1.47;;;14.20;99.90;;;;;;10513071;28;21715;-55
2024/03/15 11:29:55;;;;;;;11.75;2.70;;;14.30;99.90;;;;;;10526629;28;20140;-54
2024/03/15 11:34:58;;;;;;;7.30;1.98;;;14.60;99.90;;;;;;10514844;28;20035;-55
2024/03/15 11:40:00;;;;;;;5.55;1.83;;;14.60;99.90;;;;;;10516848;28;20138;-56
2024/03/15 11:45:02;;;;;;;4.82;1.50;;;14.70;99.90;;;;;;10516823;28;20454;-57
2024/03/15 11:50:06;;;;;;;12.90;2.47;;;14.80;99.90;;;;;;10532182;28;20058;-56
2024/03/15 11:55:11;;;;;;;12.48;2.83;;;14.60;99.90;;;;;;10510031;28;20139;-55
2024/03/15 12:00:16;;;;;;;15.88;3.17;;;14.40;99.90;;;;;;10516487;28;20585;-56
2024/03/15 12:05:18;;;;;;;15.55;3.30;;;14.40;99.90;;;;;;10514162;28;20884;-58
2024/03/15 12:10:20;;;;;;;17.07;3.40;;;14.60;99.90;;;;;;10510516;28;20059;-54
2024/03/15 12:15:27;;;;;;;16.43;4.00;;;14.80;99.90;;;;;;10483792;28;20048;-53
2024/03/15 12:20:30;;;;;;;13.85;2.38;;;14.50;99.90;;;;;;10483810;28;20048;-56
2024/03/15 12:25:32;;;;;;;10.05;2.55;;;14.80;99.90;;;;;;10480094;28;20205;-54
2024/03/15 12:30:34;;;;;;;11.37;2.53;;;15.00;99.90;;;;;;10480698;28;20102;-56
2024/03/15 12:35:36;;;;;;;16.80;2.70;;;14.90;99.90;;;;;;10487829;28;21388;-56
2024/03/15 12:40:42;;;;;;;20.67;4.23;;;14.80;99.90;;;;;;10487907;28;20517;-57
2024/03/15 12:45:44;;;;;;;18.40;3.80;;;14.90;99.90;;;;;;10490507;28;21084;-55
2024/03/15 12:50:46;;;;;;;12.07;3.67;;;14.70;99.90;;;;;;10492973;28;20059;-54
2024/03/15 12:55:48;;;;;;;16.53;2.87;;;14.70;99.90;;;;;;10486050;28;20501;-55
2024/03/15 13:00:50;;;;;;;15.23;2.67;;;14.70;99.90;;;;;;10487293;28;20059;-54
2024/03/15 13:05:52;;;;;;;21.60;3.00;;;14.60;99.90;;;;;;10487459;28;20067;-53
2024/03/15 13:10:55;;;;;;;17.80;3.20;;;14.80;99.90;;;;;;10488861;28;20110;-56
2024/03/15 13:15:57;;;;;;;25.60;4.80;;;15.10;99.90;;;;;;10516171;28;20496;-56
2024/03/15 13:20:59;;;;;;;18.03;3.30;;;15.10;99.90;;;;;;10515941;28;20054;-55
2024/03/15 13:26:02;;;;;;;22.85;3.03;;;14.90;99.90;;;;;;10520007;27;20136;-56
2024/03/15 13:31:05;;;;;;;;;;;14.90;99.90;;;;;;10516707;27;20664;-56
2024/03/15 13:36:08;;;;;;;22.45;4.75;;;15.10;99.90;;;;;;10531618;27;20011;-56
2024/03/15 13:41:11;;;;;;;20.05;3.20;;;15.40;99.90;;;;;;10520566;28;20315;-52
2024/03/15 13:46:13;;;;;;;20.63;3.33;;;15.50;99.90;;;;;;10521279;28;20097;-55
2024/03/15 13:51:15;;;;;;;25.88;4.03;;;15.50;99.90;;;;;;10516298;28;20039;-55
2024/03/15 13:56:18;;;;;;;21.60;3.95;;;15.70;99.90;;;;;;10516789;28;20055;-53
2024/03/15 14:01:21;;;;;;;21.95;4.78;;;15.50;99.90;;;;;;10509111;28;20066;-55
2024/03/15 14:06:24;;;;;;;31.38;6.20;;;15.10;99.90;;;;;;10527562;27;20044;-52
2024/03/15 14:11:26;;;;;;;30.75;4.28;;;15.20;99.90;;;;;;10515938;27;20068;-55
2024/03/15 14:16:28;;;;;;;26.73;4.80;;;15.00;99.90;;;;;;10515376;27;20055;-54
2024/03/15 14:21:30;;;;;;;30.52;4.38;;;14.50;99.90;;;;;;10517937;28;20077;-53
2024/03/15 14:26:33;;;;;;;21.17;4.00;;;15.30;99.90;;;;;;10552026;27;20044;-53
2024/03/15 14:31:35;;;;;;;39.60;6.97;;;16.10;99.90;;;;;;10531881;27;20040;-53
2024/03/15 14:36:37;;;;;;;30.83;6.15;;;16.50;99.90;;;;;;10503370;27;20075;-51
2024/03/15 14:41:40;;;;;;;40.53;7.57;;;16.00;99.90;;;;;;10512919;28;20047;-53
2024/03/15 14:46:42;;;;;;;26.67;6.05;;;15.60;99.90;;;;;;10529720;27;20490;-55
2024/03/15 14:51:44;;;;;;;21.58;4.70;;;15.90;99.90;;;;;;10506337;27;20058;-54
2024/03/15 14:56:46;;;;;;;45.22;8.95;;;16.00;99.90;;;;;;10539710;27;20059;-54
2024/03/15 15:01:48;;;;;;;34.97;6.47;;;16.00;99.90;;;;;;10514507;28;20428;-53
2024/03/15 15:06:51;;;;;;;29.48;6.13;;;16.10;99.90;;;;;;10529771;27;20052;-55
2024/03/15 15:11:53;;;;;;;39.67;7.43;;;16.10;99.90;;;;;;10536766;27;20047;-55
2024/03/15 15:16:55;;;;;;;41.97;6.40;;;16.60;99.90;;;;;;10503406;28;20036;-54
2024/03/15 15:21:57;;;;;;;30.20;7.10;;;16.10;99.90;;;;;;10510705;27;20620;-56
2024/03/15 15:26:59;;;;;;;31.30;4.70;;;16.30;99.90;;;;;;10524646;28;20058;-55
2024/03/15 15:32:01;;;;;;;37.27;9.10;;;16.60;99.90;;;;;;10536614;27;20153;-57
2024/03/15 15:37:03;;;;;;;43.73;5.57;;;16.60;99.90;;;;;;10507807;28;20399;-56
2024/03/15 15:42:05;;;;;;;33.70;6.43;;;16.60;99.90;;;;;;10508258;27;21316;-56
2024/03/15 15:47:07;;;;;;;40.70;6.57;;;16.70;99.90;;;;;;10503013;27;20503;-56
2024/03/15 15:52:11;;;;;;;33.00;3.85;;;16.40;99.90;;;;;;10505453;28;20051;-57
2024/03/15 15:57:15;;;;;;;29.17;5.35;;;16.70;99.90;;;;;;10506136;28;20054;-55
2024/03/15 16:02:17;;;;;;;38.05;6.63;;;16.90;99.90;;;;;;10508857;27;20166;-56
2024/03/15 16:07:21;;;;;;;22.55;4.80;;;16.40;99.90;;;;;;10509787;28;20591;-56
2024/03/15 16:12:24;;;;;;;45.70;8.20;;;15.70;99.90;;;;;;10507005;28;20079;-55
2024/03/15 16:17:26;;;;;;;55.85;8.77;;;15.10;99.90;;;;;;10508455;28;20051;-57
2024/03/15 16:22:28;;;;;;;39.07;5.50;;;15.00;99.90;;;;;;10504783;28;20889;-57
2024/03/15 16:27:31;;;;;;;58.53;10.60;;;15.10;99.90;;;;;;10503719;28;20680;-53
2024/03/15 16:32:33;;;;;;;38.78;9.02;;;14.80;99.90;;;;;;10511914;28;20517;-55
2024/03/15 16:37:35;;;;;;;27.13;4.73;;;15.00;99.90;;;;;;10509435;28;20051;-56
2024/03/15 16:42:38;;;;;;;43.47;6.20;;;15.80;99.90;;;;;;10518248;28;21359;-55
2024/03/15 16:47:40;;;;;;;29.30;3.20;;;15.30;99.90;;;;;;10508057;28;20044;-54
2024/03/15 16:52:42;;;;;;;59.57;9.37;;;14.70;99.90;;;;;;10508371;28;20059;-54
2024/03/15 16:57:44;;;;;;;42.47;6.57;;;13.80;99.90;;;;;;10506561;28;20043;-55
2024/03/15 17:02:46;;;;;;;61.35;11.27;;;13.80;99.90;;;;;;10509736;28;20066;-54
2024/03/15 17:07:51;;;;;;;79.78;12.63;;;13.80;99.90;;;;;;10503504;28;20471;-56
2024/03/15 17:12:53;;;;;;;31.63;4.60;;;13.60;99.90;;;;;;10505553;28;20048;-56
2024/03/15 17:17:55;;;;;;;42.17;5.80;;;13.00;99.90;;;;;;10504940;28;20047;-55
2024/03/15 17:22:57;;;;;;;68.87;10.23;;;13.10;99.90;;;;;;10527047;27;20043;-56
2024/03/15 17:28:00;;;;;;;68.93;10.10;;;12.80;99.90;;;;;;10516717;27;20482;-53
2024/03/15 17:33:04;;;;;;;72.35;8.48;;;12.60;99.90;;;;;;10508247;27;20127;-55
2024/03/15 17:38:07;;;;;;;79.97;11.85;;;12.70;99.90;;;;;;10501910;27;20905;-54
2024/03/15 17:43:09;;;;;;;58.38;7.90;;;12.60;99.90;;;;;;10510183;27;20154;-54
2024/03/15 17:48:12;;;;;;;39.53;4.65;;;12.60;99.90;;;;;;10516107;28;20078;-53
2024/03/15 17:53:14;;;;;;;46.88;7.20;;;12.90;99.90;;;;;;10509453;28;20051;-57
2024/03/15 17:58:16;;;;;;;55.27;7.53;;;12.80;99.90;;;;;;10507453;28;20060;-55
2024/03/15 18:03:20;;;;;;;47.63;6.00;;;12.70;99.90;;;;;;10507519;28;20636;-55
2024/03/15 18:08:26;;;;;;;55.95;7.93;;;12.30;99.90;;;;;;10524001;27;20043;-55
2024/03/15 18:13:28;;;;;;;48.92;8.60;;;12.00;99.90;;;;;;10500113;28;20062;-53
2024/03/15 18:18:30;;;;;;;68.45;11.43;;;12.10;99.90;;;;;;10538913;27;21634;-53
2024/03/15 18:23:32;;;;;;;72.23;10.53;;;11.80;99.90;;;;;;10507276;27;20063;-54
2024/03/15 18:28:34;;;;;;;46.13;7.47;;;11.80;99.90;;;;;;10525518;27;21150;-53
2024/03/15 18:33:37;;;;;;;48.65;8.55;;;11.60;99.90;;;;;;10508223;28;20130;-50
2024/03/15 18:38:39;;;;;;;51.97;8.68;;;11.80;99.90;;;;;;10517611;28;20528;-51
2024/03/15 18:43:41;;;;;;;54.67;7.07;;;11.50;99.90;;;;;;10528647;27;20052;-53
2024/03/15 18:48:43;;;;;;;63.67;8.33;;;11.90;99.90;;;;;;10502100;28;20077;-54
2024/03/15 18:53:45;;;;;;;45.43;8.27;;;11.60;99.90;;;;;;10523913;28;20063;-55
2024/03/15 18:58:48;;;;;;;55.30;8.37;;;11.40;99.90;;;;;;10524408;27;20580;-54
2024/03/15 19:03:50;;;;;;;63.33;8.48;;;11.60;99.90;;;;;;10511543;28;20051;-57
2024/03/15 19:08:53;;;;;;;55.15;8.23;;;11.60;99.90;;;;;;10520683;28;20047;-54
2024/03/15 19:13:55;;;;;;;53.63;8.25;;;11.40;99.90;;;;;;10532087;27;20147;-52
2024/03/15 19:18:58;;;;;;;59.67;9.52;;;11.40;99.90;;;;;;10507921;28;20805;-54
2024/03/15 19:24:00;;;;;;;51.70;7.30;;;11.40;99.90;;;;;;10502232;28;20047;-52
2024/03/15 19:29:03;;;;;;;37.03;5.57;;;11.50;99.90;;;;;;10501407;27;20193;-54
2024/03/15 19:34:05;;;;;;;22.50;3.03;;;11.50;99.90;;;;;;10497263;28;20039;-54
2024/03/15 19:39:09;;;;;;;66.67;9.50;;;11.60;99.90;;;;;;10529702;27;20167;-54
2024/03/15 19:44:11;;;;;;;34.03;5.75;;;11.80;99.90;;;;;;10500809;28;20047;-54
2024/03/15 19:49:13;;;;;;;49.42;6.43;;;11.40;99.90;;;;;;10506607;28;20100;-54
2024/03/15 19:54:15;;;;;;;65.63;8.70;;;11.30;99.90;;;;;;10503075;27;20672;-52
2024/03/15 19:59:17;;;;;;;48.77;7.97;;;11.30;99.90;;;;;;10501387;27;20059;-56
2024/03/15 20:04:20;;;;;;;52.63;8.10;;;11.30;99.90;;;;;;10530236;27;20046;-55
2024/03/15 20:09:23;;;;;;;49.30;8.18;;;11.30;99.90;;;;;;10502565;28;20496;-56
2024/03/15 20:14:25;;;;;;;65.43;10.13;;;11.40;99.90;;;;;;10476808;28;20741;-54
2024/03/15 20:19:29;;;;;;;57.80;7.33;;;11.10;99.90;;;;;;10472602;28;20162;-55
2024/03/15 20:24:31;;;;;;;66.10;11.27;;;11.00;99.90;;;;;;10474684;28;20055;-54
2024/03/15 20:29:35;;;;;;;58.37;7.27;;;11.00;99.90;;;;;;10484540;28;20418;-53
2024/03/15 20:34:37;;;;;;;39.20;7.38;;;11.40;99.90;;;;;;10472244;28;20059;-54
2024/03/15 20:39:42;;;;;;;45.25;5.47;;;11.30;99.90;;;;;;10472906;28;20049;-54
2024/03/15 20:44:45;;;;;;;71.03;9.93;;;11.20;99.90;;;;;;10501923;28;20048;-55
2024/03/15 20:49:49;;;;;;;53.63;7.47;;;10.80;99.90;;;;;;10473487;28;20060;-54
2024/03/15 20:54:51;;;;;;;59.97;9.52;;;10.90;99.90;;;;;;10476506;28;20082;-56
2024/03/15 20:59:53;;;;;;;61.10;9.05;;;10.90;99.90;;;;;;10478655;28;20055;-56
2024/03/15 21:04:55;;;;;;;49.33;6.78;;;11.00;99.90;;;;;;10482077;28;20603;-53
2024/03/15 21:09:57;;;;;;;46.67;6.50;;;10.80;99.90;;;;;;10507229;27;20183;-55
2024/03/15 21:15:03;;;;;;;52.45;6.60;;;11.10;99.90;;;;;;10513225;28;20122;-51
2024/03/15 21:20:12;;;;;;;36.80;5.60;;;10.90;99.90;;;;;;10515304;28;20105;-55
2024/03/15 21:25:14;;;;;;;47.85;5.03;;;11.00;99.90;;;;;;10506942;28;20052;-56
2024/03/15 21:30:16;;;;;;;56.85;6.35;;;11.10;99.90;;;;;;10498962;28;20861;-51
2024/03/15 21:35:18;;;;;;;49.07;8.07;;;10.80;99.90;;;;;;10502002;28;20048;-54
2024/03/15 21:40:22;;;;;;;56.97;8.33;;;10.90;99.90;;;;;;10493133;28;20083;-54
2024/03/15 21:45:23;;;;;;;;;;;11.00;99.90;;;;;;10499612;28;20950;-50
2024/03/15 21:50:27;;;;;;;63.85;9.15;;;10.90;99.90;;;;;;10502371;28;19935;-53
2024/03/15 21:55:29;;;;;;;43.08;5.75;;;10.90;99.90;;;;;;10515981;27;20522;-54
2024/03/15 22:00:36;;;;;;;35.22;5.85;;;10.80;99.90;;;;;;10487329;28;20797;-55
2024/03/15 22:05:38;;;;;;;75.22;12.48;;;11.10;99.90;;;;;;10479459;28;20055;-55
2024/03/15 22:10:41;;;;;;;53.40;6.05;;;10.90;99.90;;;;;;10518718;28;20120;-54
2024/03/15 22:15:43;;;;;;;68.28;7.55;;;11.10;99.90;;;;;;10474477;28;20530;-53
2024/03/15 22:20:48;;;;;;;57.30;8.03;;;10.80;99.90;;;;;;10477751;28;20077;-54
2024/03/15 22:25:50;;;;;;;68.28;9.40;;;10.80;99.90;;;;;;10485944;28;20036;-53
2024/03/15 22:30:52;;;;;;;61.72;7.65;;;10.60;99.90;;;;;;10478715;28;20162;-54
2024/03/15 22:35:54;;;;;;;65.43;8.88;;;10.60;99.90;;;;;;10481761;28;20059;-57
2024/03/15 22:40:57;;;;;;;43.50;5.68;;;10.60;99.90;;;;;;10480923;28;20188;-52
2024/03/15 22:45:59;;;;;;;45.07;6.47;;;10.60;99.90;;;;;;10475122;28;20048;-55
2024/03/15 22:51:01;;;;;;;52.23;6.87;;;10.70;99.90;;;;;;10480566;28;20052;-55
2024/03/15 22:56:03;;;;;;;87.30;10.43;;;10.60;99.90;;;;;;10468793;28;20836;-54
2024/03/15 23:01:06;;;;;;;67.70;10.13;;;10.60;99.90;;;;;;10488129;28;20832;-56
2024/03/15 23:06:09;;;;;;;64.55;11.13;;;10.40;99.90;;;;;;10482835;28;20051;-55
2024/03/15 23:11:11;;;;;;;87.28;9.60;;;10.50;99.90;;;;;;10483098;28;20158;-52
2024/03/15 23:16:13;;;;;;;67.97;8.37;;;10.50;99.90;;;;;;10504008;27;20107;-53
2024/03/15 23:21:16;;;;;;;68.35;9.38;;;10.80;99.90;;;;;;10501019;28;20071;-55
2024/03/15 23:26:18;;;;;;;51.95;6.30;;;10.60;99.90;;;;;;10510798;28;20159;-56
2024/03/15 23:31:21;;;;;;;54.40;8.45;;;10.60;99.90;;;;;;10510001;28;20170;-52
2024/03/15 23:36:23;;;;;;;53.15;6.22;;;10.60;99.90;;;;;;10507170;27;20837;-51
2024/03/15 23:41:25;;;;;;;51.97;6.47;;;10.60;99.90;;;;;;10524683;28;20043;-53
2024/03/15 23:46:28;;;;;;;59.25;7.93;;;10.60;99.90;;;;;;10516531;28;20054;-55
2024/03/15 23:51:30;;;;;;;55.58;8.30;;;10.60;99.90;;;;;;10519939;28;20063;-51
2024/03/15 23:56:32;;;;;;;54.75;6.93;;;10.50;99.90;;;;;;10517906;28;20072;-55
